sensor_id;sensor_type;location;lat;lon;timestamp;P1;durP1;ratioP1;P2;durP2;ratioP2
8622;SDS011;4349;47.552;8.904;2022-11-20T00:01:51;4.20;;;3.80;;
8622;SDS011;4349;47.552;8.904;2022-11-20T00:04:18;3.77;;;3.57;;
8622;SDS011;4349;47.552;8.904;2022-11-20T00:06:46;4.40;;;4.07;;
8622;SDS011;4349;47.552;8.904;2022-11-20T00:09:13;3.90;;;3.70;;
8622;SDS011;4349;47.552;8.904;2022-11-20T00:11:42;4.37;;;4.07;;
8622;SDS011;4349;47.552;8.904;2022-11-20T00:14:10;4.03;;;3.70;;
8622;SDS011;4349;47.552;8.904;2022-11-20T00:16:37;3.97;;;3.67;;
8622;SDS011;4349;47.552;8.904;2022-11-20T00:19:05;3.57;;;3.27;;
8622;SDS011;4349;47.552;8.904;2022-11-20T00:21:38;3.60;;;3.40;;
8622;SDS011;4349;47.552;8.904;2022-11-20T00:24:07;3.63;;;3.40;;
8622;SDS011;4349;47.552;8.904;2022-11-20T00:26:35;3.70;;;3.50;;
8622;SDS011;4349;47.552;8.904;2022-11-20T00:29:04;3.97;;;3.20;;
8622;SDS011;4349;47.552;8.904;2022-11-20T00:31:32;4.63;;;3.80;;
8622;SDS011;4349;47.552;8.904;2022-11-20T00:34:00;3.97;;;3.67;;
8622;SDS011;4349;47.552;8.904;2022-11-20T00:36:28;5.00;;;4.33;;
8622;SDS011;4349;47.552;8.904;2022-11-20T00:38:56;3.87;;;3.57;;
8622;SDS011;4349;47.552;8.904;2022-11-20T00:41:24;4.07;;;3.77;;
8622;SDS011;4349;47.552;8.904;2022-11-20T00:43:52;4.10;;;3.80;;
8622;SDS011;4349;47.552;8.904;2022-11-20T00:46:22;3.60;;;3.40;;
8622;SDS011;4349;47.552;8.904;2022-11-20T00:48:50;3.70;;;3.27;;
8622;SDS011;4349;47.552;8.904;2022-11-20T00:51:18;3.57;;;3.37;;
8622;SDS011;4349;47.552;8.904;2022-11-20T00:53:46;3.33;;;3.03;;
8622;SDS011;4349;47.552;8.904;2022-11-20T00:56:14;4.30;;;3.20;;
8622;SDS011;4349;47.552;8.904;2022-11-20T00:58:43;3.40;;;3.20;;
8622;SDS011;4349;47.552;8.904;2022-11-20T01:01:15;3.40;;;3.10;;
8622;SDS011;4349;47.552;8.904;2022-11-20T01:03:45;3.27;;;3.10;;
8622;SDS011;4349;47.552;8.904;2022-11-20T01:06:14;3.30;;;3.10;;
8622;SDS011;4349;47.552;8.904;2022-11-20T01:08:42;3.10;;;3.00;;
8622;SDS011;4349;47.552;8.904;2022-11-20T01:11:11;3.40;;;3.10;;
8622;SDS011;4349;47.552;8.904;2022-11-20T01:13:39;3.43;;;3.17;;
8622;SDS011;4349;47.552;8.904;2022-11-20T01:16:07;3.60;;;3.30;;
8622;SDS011;4349;47.552;8.904;2022-11-20T01:18:35;3.17;;;2.97;;
8622;SDS011;4349;47.552;8.904;2022-11-20T01:21:05;2.97;;;2.87;;
8622;SDS011;4349;47.552;8.904;2022-11-20T01:23:33;3.40;;;3.20;;
8622;SDS011;4349;47.552;8.904;2022-11-20T01:26:01;3.60;;;3.30;;
8622;SDS011;4349;47.552;8.904;2022-11-20T01:28:29;3.37;;;3.17;;
8622;SDS011;4349;47.552;8.904;2022-11-20T01:30:57;3.40;;;3.10;;
8622;SDS011;4349;47.552;8.904;2022-11-20T01:33:27;3.33;;;3.13;;
8622;SDS011;4349;47.552;8.904;2022-11-20T01:36:02;3.70;;;3.20;;
8622;SDS011;4349;47.552;8.904;2022-11-20T01:38:39;3.27;;;3.07;;
8622;SDS011;4349;47.552;8.904;2022-11-20T01:41:07;3.90;;;3.30;;
8622;SDS011;4349;47.552;8.904;2022-11-20T01:43:34;3.10;;;3.00;;
8622;SDS011;4349;47.552;8.904;2022-11-20T01:48:33;3.47;;;3.20;;
8622;SDS011;4349;47.552;8.904;2022-11-20T01:51:01;3.40;;;3.10;;
8622;SDS011;4349;47.552;8.904;2022-11-20T01:53:30;3.50;;;3.30;;
8622;SDS011;4349;47.552;8.904;2022-11-20T01:56:00;3.30;;;3.10;;
8622;SDS011;4349;47.552;8.904;2022-11-20T01:58:29;3.50;;;3.30;;
8622;SDS011;4349;47.552;8.904;2022-11-20T02:00:57;2.90;;;2.70;;
8622;SDS011;4349;47.552;8.904;2022-11-20T02:03:27;3.57;;;3.27;;
8622;SDS011;4349;47.552;8.904;2022-11-20T02:05:56;3.73;;;3.40;;
8622;SDS011;4349;47.552;8.904;2022-11-20T02:08:24;3.40;;;3.20;;
8622;SDS011;4349;47.552;8.904;2022-11-20T02:10:52;3.73;;;3.43;;
8622;SDS011;4349;47.552;8.904;2022-11-20T02:13:21;3.40;;;3.10;;
8622;SDS011;4349;47.552;8.904;2022-11-20T02:16:08;3.10;;;3.00;;
8622;SDS011;4349;47.552;8.904;2022-11-20T02:18:35;3.53;;;3.30;;
8622;SDS011;4349;47.552;8.904;2022-11-20T02:21:05;3.40;;;3.20;;
8622;SDS011;4349;47.552;8.904;2022-11-20T02:23:36;3.20;;;3.00;;
8622;SDS011;4349;47.552;8.904;2022-11-20T02:26:07;3.23;;;3.03;;
8622;SDS011;4349;47.552;8.904;2022-11-20T02:28:36;2.93;;;2.83;;
8622;SDS011;4349;47.552;8.904;2022-11-20T02:31:03;4.17;;;3.30;;
8622;SDS011;4349;47.552;8.904;2022-11-20T02:33:31;3.50;;;3.30;;
8622;SDS011;4349;47.552;8.904;2022-11-20T02:35:58;3.03;;;2.83;;
8622;SDS011;4349;47.552;8.904;2022-11-20T02:38:26;3.23;;;2.83;;
8622;SDS011;4349;47.552;8.904;2022-11-20T02:40:53;3.57;;;3.37;;
8622;SDS011;4349;47.552;8.904;2022-11-20T02:43:22;3.60;;;3.40;;
8622;SDS011;4349;47.552;8.904;2022-11-20T02:45:50;3.20;;;3.00;;
8622;SDS011;4349;47.552;8.904;2022-11-20T02:48:17;2.90;;;2.70;;
8622;SDS011;4349;47.552;8.904;2022-11-20T02:50:45;3.13;;;2.93;;
8622;SDS011;4349;47.552;8.904;2022-11-20T02:53:12;3.20;;;2.90;;
8622;SDS011;4349;47.552;8.904;2022-11-20T02:55:40;3.23;;;2.97;;
8622;SDS011;4349;47.552;8.904;2022-11-20T02:58:07;2.70;;;2.60;;
8622;SDS011;4349;47.552;8.904;2022-11-20T03:00:36;2.60;;;2.50;;
8622;SDS011;4349;47.552;8.904;2022-11-20T03:03:03;2.57;;;2.37;;
8622;SDS011;4349;47.552;8.904;2022-11-20T03:05:31;2.50;;;2.40;;
8622;SDS011;4349;47.552;8.904;2022-11-20T03:07:58;2.30;;;2.20;;
8622;SDS011;4349;47.552;8.904;2022-11-20T03:10:26;2.30;;;2.20;;
8622;SDS011;4349;47.552;8.904;2022-11-20T03:12:53;2.30;;;2.20;;
8622;SDS011;4349;47.552;8.904;2022-11-20T03:15:22;2.27;;;2.10;;
8622;SDS011;4349;47.552;8.904;2022-11-20T03:17:54;2.43;;;2.33;;
8622;SDS011;4349;47.552;8.904;2022-11-20T03:20:21;2.70;;;2.50;;
8622;SDS011;4349;47.552;8.904;2022-11-20T03:22:49;2.10;;;2.10;;
8622;SDS011;4349;47.552;8.904;2022-11-20T03:25:16;2.07;;;2.00;;
8622;SDS011;4349;47.552;8.904;2022-11-20T03:27:44;2.23;;;2.03;;
8622;SDS011;4349;47.552;8.904;2022-11-20T03:30:12;2.23;;;2.13;;
8622;SDS011;4349;47.552;8.904;2022-11-20T03:32:39;1.70;;;1.60;;
8622;SDS011;4349;47.552;8.904;2022-11-20T03:35:09;2.20;;;2.10;;
8622;SDS011;4349;47.552;8.904;2022-11-20T03:37:36;2.27;;;2.17;;
8622;SDS011;4349;47.552;8.904;2022-11-20T03:40:04;2.40;;;2.30;;
8622;SDS011;4349;47.552;8.904;2022-11-20T03:42:32;2.10;;;2.00;;
8622;SDS011;4349;47.552;8.904;2022-11-20T03:45:12;1.97;;;1.97;;
8622;SDS011;4349;47.552;8.904;2022-11-20T03:47:40;2.10;;;2.00;;
8622;SDS011;4349;47.552;8.904;2022-11-20T03:50:09;2.10;;;2.00;;
8622;SDS011;4349;47.552;8.904;2022-11-20T03:52:38;2.37;;;2.20;;
8622;SDS011;4349;47.552;8.904;2022-11-20T03:55:06;2.30;;;2.10;;
8622;SDS011;4349;47.552;8.904;2022-11-20T03:57:34;1.70;;;1.70;;
8622;SDS011;4349;47.552;8.904;2022-11-20T04:00:02;2.00;;;1.90;;
8622;SDS011;4349;47.552;8.904;2022-11-20T04:02:30;2.13;;;2.03;;
8622;SDS011;4349;47.552;8.904;2022-11-20T04:04:57;1.77;;;1.77;;
8622;SDS011;4349;47.552;8.904;2022-11-20T04:07:26;1.70;;;1.70;;
8622;SDS011;4349;47.552;8.904;2022-11-20T04:09:53;2.13;;;2.03;;
8622;SDS011;4349;47.552;8.904;2022-11-20T04:12:21;2.77;;;1.60;;
8622;SDS011;4349;47.552;8.904;2022-11-20T04:14:48;1.90;;;1.80;;
8622;SDS011;4349;47.552;8.904;2022-11-20T04:17:16;2.23;;;2.10;;
8622;SDS011;4349;47.552;8.904;2022-11-20T04:19:43;1.70;;;1.67;;
8622;SDS011;4349;47.552;8.904;2022-11-20T04:22:10;2.10;;;2.00;;
8622;SDS011;4349;47.552;8.904;2022-11-20T04:24:40;2.13;;;2.03;;
8622;SDS011;4349;47.552;8.904;2022-11-20T04:27:07;1.77;;;1.77;;
8622;SDS011;4349;47.552;8.904;2022-11-20T04:29:34;1.87;;;1.87;;
8622;SDS011;4349;47.552;8.904;2022-11-20T04:32:02;1.87;;;1.87;;
8622;SDS011;4349;47.552;8.904;2022-11-20T04:34:30;1.97;;;1.87;;
8622;SDS011;4349;47.552;8.904;2022-11-20T04:36:57;1.90;;;1.80;;
8622;SDS011;4349;47.552;8.904;2022-11-20T04:39:25;2.47;;;2.30;;
8622;SDS011;4349;47.552;8.904;2022-11-20T04:41:53;1.90;;;1.80;;
8622;SDS011;4349;47.552;8.904;2022-11-20T04:44:35;1.90;;;1.80;;
8622;SDS011;4349;47.552;8.904;2022-11-20T04:47:02;1.70;;;1.70;;
8622;SDS011;4349;47.552;8.904;2022-11-20T04:49:30;2.00;;;1.80;;
8622;SDS011;4349;47.552;8.904;2022-11-20T04:51:58;3.33;;;1.80;;
8622;SDS011;4349;47.552;8.904;2022-11-20T04:54:25;1.90;;;1.80;;
8622;SDS011;4349;47.552;8.904;2022-11-20T04:56:54;2.50;;;1.80;;
8622;SDS011;4349;47.552;8.904;2022-11-20T04:59:22;1.97;;;1.93;;
8622;SDS011;4349;47.552;8.904;2022-11-20T05:01:50;1.80;;;1.70;;
8622;SDS011;4349;47.552;8.904;2022-11-20T05:04:17;1.77;;;1.77;;
8622;SDS011;4349;47.552;8.904;2022-11-20T05:06:45;1.60;;;1.60;;
8622;SDS011;4349;47.552;8.904;2022-11-20T05:09:12;1.70;;;1.60;;
8622;SDS011;4349;47.552;8.904;2022-11-20T05:11:40;2.03;;;1.97;;
8622;SDS011;4349;47.552;8.904;2022-11-20T05:14:08;2.10;;;1.90;;
8622;SDS011;4349;47.552;8.904;2022-11-20T05:16:36;1.70;;;1.70;;
8622;SDS011;4349;47.552;8.904;2022-11-20T05:19:03;1.80;;;1.70;;
8622;SDS011;4349;47.552;8.904;2022-11-20T05:21:31;2.03;;;1.97;;
8622;SDS011;4349;47.552;8.904;2022-11-20T05:23:58;1.87;;;1.70;;
8622;SDS011;4349;47.552;8.904;2022-11-20T05:26:26;1.70;;;1.70;;
8622;SDS011;4349;47.552;8.904;2022-11-20T05:28:54;1.83;;;1.73;;
8622;SDS011;4349;47.552;8.904;2022-11-20T05:31:23;2.20;;;2.00;;
8622;SDS011;4349;47.552;8.904;2022-11-20T05:33:53;1.57;;;1.57;;
8622;SDS011;4349;47.552;8.904;2022-11-20T05:36:22;2.10;;;1.90;;
8622;SDS011;4349;47.552;8.904;2022-11-20T05:38:49;2.23;;;1.73;;
8622;SDS011;4349;47.552;8.904;2022-11-20T05:41:22;1.73;;;1.70;;
8622;SDS011;4349;47.552;8.904;2022-11-20T05:43:49;1.63;;;1.63;;
8622;SDS011;4349;47.552;8.904;2022-11-20T05:46:17;1.70;;;1.70;;
8622;SDS011;4349;47.552;8.904;2022-11-20T05:48:54;1.77;;;1.77;;
8622;SDS011;4349;47.552;8.904;2022-11-20T05:51:22;2.07;;;1.97;;
8622;SDS011;4349;47.552;8.904;2022-11-20T05:53:49;1.90;;;1.80;;
8622;SDS011;4349;47.552;8.904;2022-11-20T05:56:20;2.30;;;2.10;;
8622;SDS011;4349;47.552;8.904;2022-11-20T05:58:47;1.90;;;1.80;;
8622;SDS011;4349;47.552;8.904;2022-11-20T06:01:16;2.20;;;2.17;;
8622;SDS011;4349;47.552;8.904;2022-11-20T06:03:44;2.30;;;2.20;;
8622;SDS011;4349;47.552;8.904;2022-11-20T06:06:15;2.30;;;2.20;;
8622;SDS011;4349;47.552;8.904;2022-11-20T06:08:42;2.40;;;2.20;;
8622;SDS011;4349;47.552;8.904;2022-11-20T06:11:10;2.30;;;2.20;;
8622;SDS011;4349;47.552;8.904;2022-11-20T06:13:38;2.20;;;2.10;;
8622;SDS011;4349;47.552;8.904;2022-11-20T06:16:08;2.50;;;2.30;;
8622;SDS011;4349;47.552;8.904;2022-11-20T06:18:35;2.30;;;2.20;;
8622;SDS011;4349;47.552;8.904;2022-11-20T06:21:03;2.67;;;2.47;;
8622;SDS011;4349;47.552;8.904;2022-11-20T06:23:33;2.07;;;2.07;;
8622;SDS011;4349;47.552;8.904;2022-11-20T06:26:01;2.20;;;2.10;;
8622;SDS011;4349;47.552;8.904;2022-11-20T06:28:29;2.63;;;2.33;;
8622;SDS011;4349;47.552;8.904;2022-11-20T06:30:56;3.13;;;2.20;;
8622;SDS011;4349;47.552;8.904;2022-11-20T06:33:24;2.40;;;2.20;;
8622;SDS011;4349;47.552;8.904;2022-11-20T06:35:51;2.57;;;2.40;;
8622;SDS011;4349;47.552;8.904;2022-11-20T06:38:26;2.30;;;2.20;;
8622;SDS011;4349;47.552;8.904;2022-11-20T06:40:55;2.40;;;2.30;;
8622;SDS011;4349;47.552;8.904;2022-11-20T06:43:24;2.90;;;2.60;;
8622;SDS011;4349;47.552;8.904;2022-11-20T06:45:52;3.20;;;3.00;;
8622;SDS011;4349;47.552;8.904;2022-11-20T06:48:19;3.13;;;2.93;;
8622;SDS011;4349;47.552;8.904;2022-11-20T06:50:47;2.80;;;2.70;;
8622;SDS011;4349;47.552;8.904;2022-11-20T06:53:14;2.53;;;2.43;;
8622;SDS011;4349;47.552;8.904;2022-11-20T06:55:42;2.70;;;2.60;;
8622;SDS011;4349;47.552;8.904;2022-11-20T06:58:11;2.33;;;2.23;;
8622;SDS011;4349;47.552;8.904;2022-11-20T07:00:39;2.50;;;2.40;;
8622;SDS011;4349;47.552;8.904;2022-11-20T07:03:07;2.30;;;2.20;;
8622;SDS011;4349;47.552;8.904;2022-11-20T07:05:35;2.23;;;2.00;;
8622;SDS011;4349;47.552;8.904;2022-11-20T07:08:02;2.60;;;2.50;;
8622;SDS011;4349;47.552;8.904;2022-11-20T07:10:30;2.20;;;2.10;;
8622;SDS011;4349;47.552;8.904;2022-11-20T07:12:58;2.00;;;1.90;;
8622;SDS011;4349;47.552;8.904;2022-11-20T07:15:27;2.30;;;2.10;;
8622;SDS011;4349;47.552;8.904;2022-11-20T07:17:55;2.50;;;2.30;;
8622;SDS011;4349;47.552;8.904;2022-11-20T07:20:22;2.17;;;2.07;;
8622;SDS011;4349;47.552;8.904;2022-11-20T07:22:52;2.37;;;2.27;;
8622;SDS011;4349;47.552;8.904;2022-11-20T07:25:20;2.20;;;2.10;;
8622;SDS011;4349;47.552;8.904;2022-11-20T07:27:47;2.40;;;2.30;;
8622;SDS011;4349;47.552;8.904;2022-11-20T07:30:15;2.30;;;2.20;;
8622;SDS011;4349;47.552;8.904;2022-11-20T07:32:47;2.20;;;2.10;;
8622;SDS011;4349;47.552;8.904;2022-11-20T07:35:14;2.27;;;2.17;;
8622;SDS011;4349;47.552;8.904;2022-11-20T07:37:42;2.67;;;2.47;;
8622;SDS011;4349;47.552;8.904;2022-11-20T07:40:09;4.13;;;3.83;;
8622;SDS011;4349;47.552;8.904;2022-11-20T07:42:37;3.00;;;2.80;;
8622;SDS011;4349;47.552;8.904;2022-11-20T07:45:05;2.80;;;2.60;;
8622;SDS011;4349;47.552;8.904;2022-11-20T07:47:34;2.30;;;2.20;;
8622;SDS011;4349;47.552;8.904;2022-11-20T07:50:05;2.60;;;2.40;;
8622;SDS011;4349;47.552;8.904;2022-11-20T07:52:33;2.27;;;2.13;;
8622;SDS011;4349;47.552;8.904;2022-11-20T07:55:01;2.70;;;2.50;;
8622;SDS011;4349;47.552;8.904;2022-11-20T07:57:28;2.60;;;2.40;;
8622;SDS011;4349;47.552;8.904;2022-11-20T07:59:56;2.57;;;2.30;;
8622;SDS011;4349;47.552;8.904;2022-11-20T08:02:23;2.40;;;2.20;;
8622;SDS011;4349;47.552;8.904;2022-11-20T08:04:51;2.13;;;2.03;;
8622;SDS011;4349;47.552;8.904;2022-11-20T08:07:20;2.27;;;2.07;;
8622;SDS011;4349;47.552;8.904;2022-11-20T08:09:47;2.33;;;2.20;;
8622;SDS011;4349;47.552;8.904;2022-11-20T08:12:16;2.30;;;2.20;;
8622;SDS011;4349;47.552;8.904;2022-11-20T08:15:02;2.40;;;2.30;;
8622;SDS011;4349;47.552;8.904;2022-11-20T08:17:37;2.00;;;1.90;;
8622;SDS011;4349;47.552;8.904;2022-11-20T08:20:05;2.47;;;2.00;;
8622;SDS011;4349;47.552;8.904;2022-11-20T08:22:34;1.87;;;1.87;;
8622;SDS011;4349;47.552;8.904;2022-11-20T08:25:02;1.90;;;1.80;;
8622;SDS011;4349;47.552;8.904;2022-11-20T08:27:31;1.83;;;1.83;;
8622;SDS011;4349;47.552;8.904;2022-11-20T08:29:58;2.97;;;2.13;;
8622;SDS011;4349;47.552;8.904;2022-11-20T08:32:27;2.77;;;2.57;;
8622;SDS011;4349;47.552;8.904;2022-11-20T08:34:55;2.30;;;2.13;;
8622;SDS011;4349;47.552;8.904;2022-11-20T08:37:22;1.97;;;1.90;;
8622;SDS011;4349;47.552;8.904;2022-11-20T08:39:51;2.27;;;2.17;;
8622;SDS011;4349;47.552;8.904;2022-11-20T08:42:19;2.00;;;1.90;;
8622;SDS011;4349;47.552;8.904;2022-11-20T08:44:47;1.90;;;1.80;;
8622;SDS011;4349;47.552;8.904;2022-11-20T08:47:15;2.10;;;2.00;;
8622;SDS011;4349;47.552;8.904;2022-11-20T08:49:42;2.40;;;2.30;;
8622;SDS011;4349;47.552;8.904;2022-11-20T08:52:10;2.37;;;2.27;;
8622;SDS011;4349;47.552;8.904;2022-11-20T08:54:37;2.30;;;2.20;;
8622;SDS011;4349;47.552;8.904;2022-11-20T08:57:06;2.40;;;2.30;;
8622;SDS011;4349;47.552;8.904;2022-11-20T08:59:33;2.27;;;2.17;;
8622;SDS011;4349;47.552;8.904;2022-11-20T09:02:21;2.03;;;1.90;;
8622;SDS011;4349;47.552;8.904;2022-11-20T09:04:49;1.70;;;1.70;;
8622;SDS011;4349;47.552;8.904;2022-11-20T09:07:16;1.80;;;1.80;;
8622;SDS011;4349;47.552;8.904;2022-11-20T09:09:44;1.70;;;1.70;;
8622;SDS011;4349;47.552;8.904;2022-11-20T09:12:17;1.70;;;1.70;;
8622;SDS011;4349;47.552;8.904;2022-11-20T09:14:45;1.70;;;1.70;;
8622;SDS011;4349;47.552;8.904;2022-11-20T09:17:20;1.90;;;1.80;;
8622;SDS011;4349;47.552;8.904;2022-11-20T09:19:47;1.60;;;1.60;;
8622;SDS011;4349;47.552;8.904;2022-11-20T09:22:15;1.83;;;1.83;;
8622;SDS011;4349;47.552;8.904;2022-11-20T09:24:42;2.00;;;1.90;;
8622;SDS011;4349;47.552;8.904;2022-11-20T09:27:09;1.70;;;1.70;;
8622;SDS011;4349;47.552;8.904;2022-11-20T09:29:38;1.70;;;1.70;;
8622;SDS011;4349;47.552;8.904;2022-11-20T09:32:06;1.90;;;1.80;;
8622;SDS011;4349;47.552;8.904;2022-11-20T09:34:33;1.80;;;1.70;;
8622;SDS011;4349;47.552;8.904;2022-11-20T09:37:01;1.70;;;1.70;;
8622;SDS011;4349;47.552;8.904;2022-11-20T09:39:33;2.47;;;1.77;;
8622;SDS011;4349;47.552;8.904;2022-11-20T09:42:09;1.80;;;1.80;;
8622;SDS011;4349;47.552;8.904;2022-11-20T09:44:48;2.00;;;1.90;;
8622;SDS011;4349;47.552;8.904;2022-11-20T09:47:17;2.80;;;2.10;;
8622;SDS011;4349;47.552;8.904;2022-11-20T09:49:55;2.03;;;1.80;;
8622;SDS011;4349;47.552;8.904;2022-11-20T09:52:29;1.70;;;1.70;;
8622;SDS011;4349;47.552;8.904;2022-11-20T09:55:00;1.57;;;1.57;;
8622;SDS011;4349;47.552;8.904;2022-11-20T09:57:31;1.67;;;1.60;;
8622;SDS011;4349;47.552;8.904;2022-11-20T10:00:00;1.50;;;1.50;;
8622;SDS011;4349;47.552;8.904;2022-11-20T10:02:37;1.40;;;1.40;;
8622;SDS011;4349;47.552;8.904;2022-11-20T10:05:12;1.57;;;1.57;;
8622;SDS011;4349;47.552;8.904;2022-11-20T10:07:43;1.70;;;1.60;;
8622;SDS011;4349;47.552;8.904;2022-11-20T10:10:14;1.47;;;1.40;;
8622;SDS011;4349;47.552;8.904;2022-11-20T10:12:48;1.60;;;1.60;;
8622;SDS011;4349;47.552;8.904;2022-11-20T10:15:24;1.70;;;1.60;;
8622;SDS011;4349;47.552;8.904;2022-11-20T10:17:58;1.60;;;1.60;;
8622;SDS011;4349;47.552;8.904;2022-11-20T10:20:32;1.83;;;1.73;;
8622;SDS011;4349;47.552;8.904;2022-11-20T10:23:26;1.60;;;1.50;;
8622;SDS011;4349;47.552;8.904;2022-11-20T10:25:56;1.60;;;1.50;;
8622;SDS011;4349;47.552;8.904;2022-11-20T10:28:40;1.40;;;1.40;;
8622;SDS011;4349;47.552;8.904;2022-11-20T10:31:27;1.67;;;1.67;;
8622;SDS011;4349;47.552;8.904;2022-11-20T10:33:55;2.17;;;1.40;;
8622;SDS011;4349;47.552;8.904;2022-11-20T10:36:47;1.53;;;1.50;;
8622;SDS011;4349;47.552;8.904;2022-11-20T10:39:18;1.97;;;1.83;;
8622;SDS011;4349;47.552;8.904;2022-11-20T10:41:50;1.77;;;1.77;;
8622;SDS011;4349;47.552;8.904;2022-11-20T10:44:19;1.40;;;1.40;;
8622;SDS011;4349;47.552;8.904;2022-11-20T10:47:12;1.60;;;1.57;;
8622;SDS011;4349;47.552;8.904;2022-11-20T10:49:40;1.60;;;1.50;;
8622;SDS011;4349;47.552;8.904;2022-11-20T10:52:09;2.10;;;1.53;;
8622;SDS011;4349;47.552;8.904;2022-11-20T10:54:41;1.43;;;1.40;;
8622;SDS011;4349;47.552;8.904;2022-11-20T10:57:15;1.30;;;1.30;;
8622;SDS011;4349;47.552;8.904;2022-11-20T11:02:34;1.83;;;1.73;;
8622;SDS011;4349;47.552;8.904;2022-11-20T11:05:06;1.77;;;1.67;;
8622;SDS011;4349;47.552;8.904;2022-11-20T11:07:40;1.60;;;1.50;;
8622;SDS011;4349;47.552;8.904;2022-11-20T11:10:13;1.63;;;1.57;;
8622;SDS011;4349;47.552;8.904;2022-11-20T11:12:43;1.63;;;1.60;;
8622;SDS011;4349;47.552;8.904;2022-11-20T11:15:12;1.63;;;1.43;;
8622;SDS011;4349;47.552;8.904;2022-11-20T11:17:46;1.57;;;1.57;;
8622;SDS011;4349;47.552;8.904;2022-11-20T11:20:15;1.40;;;1.40;;
8622;SDS011;4349;47.552;8.904;2022-11-20T11:22:43;1.60;;;1.60;;
8622;SDS011;4349;47.552;8.904;2022-11-20T11:25:19;1.60;;;1.50;;
8622;SDS011;4349;47.552;8.904;2022-11-20T11:27:47;1.70;;;1.70;;
8622;SDS011;4349;47.552;8.904;2022-11-20T11:30:16;1.20;;;1.20;;
8622;SDS011;4349;47.552;8.904;2022-11-20T11:32:44;1.60;;;1.50;;
8622;SDS011;4349;47.552;8.904;2022-11-20T11:35:21;1.40;;;1.40;;
8622;SDS011;4349;47.552;8.904;2022-11-20T11:37:48;1.90;;;1.67;;
8622;SDS011;4349;47.552;8.904;2022-11-20T11:40:17;1.57;;;1.57;;
8622;SDS011;4349;47.552;8.904;2022-11-20T11:42:51;1.90;;;1.80;;
8622;SDS011;4349;47.552;8.904;2022-11-20T11:45:20;1.60;;;1.50;;
8622;SDS011;4349;47.552;8.904;2022-11-20T11:47:47;1.40;;;1.40;;
8622;SDS011;4349;47.552;8.904;2022-11-20T11:50:16;1.60;;;1.60;;
8622;SDS011;4349;47.552;8.904;2022-11-20T11:52:47;1.53;;;1.50;;
8622;SDS011;4349;47.552;8.904;2022-11-20T11:55:17;1.57;;;1.43;;
8622;SDS011;4349;47.552;8.904;2022-11-20T11:57:49;1.80;;;1.70;;
8622;SDS011;4349;47.552;8.904;2022-11-20T12:00:20;1.60;;;1.50;;
8622;SDS011;4349;47.552;8.904;2022-11-20T12:02:50;2.30;;;1.93;;
8622;SDS011;4349;47.552;8.904;2022-11-20T12:05:20;5.23;;;3.20;;
8622;SDS011;4349;47.552;8.904;2022-11-20T12:07:51;1.70;;;1.70;;
8622;SDS011;4349;47.552;8.904;2022-11-20T12:10:21;1.63;;;1.53;;
8622;SDS011;4349;47.552;8.904;2022-11-20T12:12:53;3.00;;;2.80;;
8622;SDS011;4349;47.552;8.904;2022-11-20T12:15:26;2.80;;;2.60;;
8622;SDS011;4349;47.552;8.904;2022-11-20T12:17:54;3.80;;;3.50;;
8622;SDS011;4349;47.552;8.904;2022-11-20T12:20:22;2.47;;;2.30;;
8622;SDS011;4349;47.552;8.904;2022-11-20T12:22:54;2.53;;;2.33;;
8622;SDS011;4349;47.552;8.904;2022-11-20T12:25:24;1.70;;;1.60;;
8622;SDS011;4349;47.552;8.904;2022-11-20T12:30:38;3.63;;;2.80;;
8622;SDS011;4349;47.552;8.904;2022-11-20T12:33:14;1.20;;;1.20;;
8622;SDS011;4349;47.552;8.904;2022-11-20T12:35:46;2.50;;;1.60;;
8622;SDS011;4349;47.552;8.904;2022-11-20T12:41:14;2.50;;;1.50;;
8622;SDS011;4349;47.552;8.904;2022-11-20T12:44:05;2.40;;;2.20;;
8622;SDS011;4349;47.552;8.904;2022-11-20T12:46:54;2.13;;;2.00;;
8622;SDS011;4349;47.552;8.904;2022-11-20T12:49:30;3.70;;;2.27;;
8622;SDS011;4349;47.552;8.904;2022-11-20T12:52:04;2.30;;;2.10;;
8622;SDS011;4349;47.552;8.904;2022-11-20T12:54:37;2.67;;;2.57;;
8622;SDS011;4349;47.552;8.904;2022-11-20T12:57:08;1.20;;;1.20;;
8622;SDS011;4349;47.552;8.904;2022-11-20T12:59:46;1.90;;;1.80;;
8622;SDS011;4349;47.552;8.904;2022-11-20T13:02:18;1.30;;;1.30;;
8622;SDS011;4349;47.552;8.904;2022-11-20T13:04:55;1.63;;;1.60;;
8622;SDS011;4349;47.552;8.904;2022-11-20T13:07:28;1.40;;;1.40;;
8622;SDS011;4349;47.552;8.904;2022-11-20T13:09:56;1.30;;;1.30;;
8622;SDS011;4349;47.552;8.904;2022-11-20T13:12:29;1.20;;;1.20;;
8622;SDS011;4349;47.552;8.904;2022-11-20T13:14:58;1.57;;;1.40;;
8622;SDS011;4349;47.552;8.904;2022-11-20T13:17:30;1.20;;;1.20;;
8622;SDS011;4349;47.552;8.904;2022-11-20T13:20:00;1.30;;;1.30;;
8622;SDS011;4349;47.552;8.904;2022-11-20T13:22:31;1.10;;;1.10;;
8622;SDS011;4349;47.552;8.904;2022-11-20T13:25:09;1.33;;;1.33;;
8622;SDS011;4349;47.552;8.904;2022-11-20T13:27:47;1.40;;;1.23;;
8622;SDS011;4349;47.552;8.904;2022-11-20T13:30:16;1.50;;;1.43;;
8622;SDS011;4349;47.552;8.904;2022-11-20T13:32:48;1.60;;;1.50;;
8622;SDS011;4349;47.552;8.904;2022-11-20T13:35:23;1.83;;;1.73;;
8622;SDS011;4349;47.552;8.904;2022-11-20T13:37:59;1.23;;;1.20;;
8622;SDS011;4349;47.552;8.904;2022-11-20T13:40:27;3.10;;;2.90;;
8622;SDS011;4349;47.552;8.904;2022-11-20T13:43:00;2.40;;;2.30;;
8622;SDS011;4349;47.552;8.904;2022-11-20T13:45:29;2.00;;;1.90;;
8622;SDS011;4349;47.552;8.904;2022-11-20T13:47:57;1.90;;;1.63;;
8622;SDS011;4349;47.552;8.904;2022-11-20T13:50:30;2.30;;;2.10;;
8622;SDS011;4349;47.552;8.904;2022-11-20T13:53:06;2.00;;;1.90;;
8622;SDS011;4349;47.552;8.904;2022-11-20T13:55:38;2.20;;;2.10;;
8622;SDS011;4349;47.552;8.904;2022-11-20T13:58:09;1.97;;;1.87;;
8622;SDS011;4349;47.552;8.904;2022-11-20T14:00:43;1.50;;;1.40;;
8622;SDS011;4349;47.552;8.904;2022-11-20T14:03:14;1.37;;;1.20;;
8622;SDS011;4349;47.552;8.904;2022-11-20T14:06:05;1.50;;;1.40;;
8622;SDS011;4349;47.552;8.904;2022-11-20T14:08:33;1.23;;;1.23;;
8622;SDS011;4349;47.552;8.904;2022-11-20T14:11:04;1.50;;;1.40;;
8622;SDS011;4349;47.552;8.904;2022-11-20T14:13:33;1.83;;;1.73;;
8622;SDS011;4349;47.552;8.904;2022-11-20T14:16:01;1.80;;;1.73;;
8622;SDS011;4349;47.552;8.904;2022-11-20T14:18:28;1.50;;;1.50;;
8622;SDS011;4349;47.552;8.904;2022-11-20T14:20:59;1.80;;;1.70;;
8622;SDS011;4349;47.552;8.904;2022-11-20T14:23:27;1.90;;;1.80;;
8622;SDS011;4349;47.552;8.904;2022-11-20T14:25:56;1.70;;;1.60;;
8622;SDS011;4349;47.552;8.904;2022-11-20T14:28:25;1.30;;;1.30;;
8622;SDS011;4349;47.552;8.904;2022-11-20T14:30:54;1.63;;;1.50;;
8622;SDS011;4349;47.552;8.904;2022-11-20T14:33:22;2.23;;;1.70;;
8622;SDS011;4349;47.552;8.904;2022-11-20T14:35:52;2.60;;;2.40;;
8622;SDS011;4349;47.552;8.904;2022-11-20T14:38:21;2.27;;;2.07;;
8622;SDS011;4349;47.552;8.904;2022-11-20T14:40:49;2.43;;;2.30;;
8622;SDS011;4349;47.552;8.904;2022-11-20T14:43:17;2.90;;;2.77;;
8622;SDS011;4349;47.552;8.904;2022-11-20T14:45:46;2.60;;;2.40;;
8622;SDS011;4349;47.552;8.904;2022-11-20T14:48:17;2.20;;;2.00;;
8622;SDS011;4349;47.552;8.904;2022-11-20T14:50:44;1.50;;;1.40;;
8622;SDS011;4349;47.552;8.904;2022-11-20T14:53:12;1.80;;;1.70;;
8622;SDS011;4349;47.552;8.904;2022-11-20T14:55:54;2.33;;;2.10;;
8622;SDS011;4349;47.552;8.904;2022-11-20T14:58:25;2.37;;;2.27;;
8622;SDS011;4349;47.552;8.904;2022-11-20T15:00:53;2.43;;;2.33;;
8622;SDS011;4349;47.552;8.904;2022-11-20T15:03:22;1.97;;;1.87;;
8622;SDS011;4349;47.552;8.904;2022-11-20T15:05:57;4.23;;;3.47;;
8622;SDS011;4349;47.552;8.904;2022-11-20T15:08:24;2.60;;;2.40;;
8622;SDS011;4349;47.552;8.904;2022-11-20T15:10:52;3.90;;;3.60;;
8622;SDS011;4349;47.552;8.904;2022-11-20T15:13:24;3.30;;;3.00;;
8622;SDS011;4349;47.552;8.904;2022-11-20T15:15:52;3.57;;;3.23;;
8622;SDS011;4349;47.552;8.904;2022-11-20T15:18:22;4.23;;;3.37;;
8622;SDS011;4349;47.552;8.904;2022-11-20T15:20:50;3.33;;;2.73;;
8622;SDS011;4349;47.552;8.904;2022-11-20T15:23:19;2.90;;;2.70;;
8622;SDS011;4349;47.552;8.904;2022-11-20T15:25:46;4.20;;;2.60;;
8622;SDS011;4349;47.552;8.904;2022-11-20T15:28:16;2.90;;;2.70;;
8622;SDS011;4349;47.552;8.904;2022-11-20T15:30:44;8.00;;;3.10;;
8622;SDS011;4349;47.552;8.904;2022-11-20T15:33:12;6.00;;;3.67;;
8622;SDS011;4349;47.552;8.904;2022-11-20T15:35:41;4.73;;;4.43;;
8622;SDS011;4349;47.552;8.904;2022-11-20T15:38:10;3.50;;;3.20;;
8622;SDS011;4349;47.552;8.904;2022-11-20T15:40:37;3.47;;;3.20;;
8622;SDS011;4349;47.552;8.904;2022-11-20T15:43:05;3.40;;;3.17;;